CheckWX is a tool to help pilots better visualize weather data.  It is not intended as a substitute for an official pre-flight weather briefing.

03:05:34 UTC

KEKM METAR
Elkhart Municipal Airport
Elkhart, Indiana, USA
Current

5 hours ago

KEKM 232148Z 26004KT 10SM CLR 10/M06 A3026 RMK LAST
Observed
Mar-23 @ 21:48 UTC
Wind
  • 260° at 4 KTS
Visibility
10 SM
Flight Rules
VFR
Cloud Levels
  • Clear skies
Temperature
10°C / 50°F
Dewpoint
-6°C / 21°F
Humidity
32%
Altimeter
30.26" Hg
Pressure
1024.72 hPa
Previous

6 hours ago

KEKM 232048Z 25006KT 10SM CLR 09/M07 A3027
Observed
Mar-23 @ 20:48 UTC
Wind
  • 250° at 6 KTS
Visibility
10 SM
Flight Rules
VFR
Cloud Levels
  • Clear skies
Temperature
C / 48°F
Dewpoint
-7°C / 19°F
Humidity
32%
Altimeter
30.27" Hg
Pressure
1025.02 hPa
Previous

7 hours ago

KEKM 231948Z 00000KT 10SM CLR 08/M07 A3028
Observed
Mar-23 @ 19:48 UTC
Visibility
10 SM
Flight Rules
VFR
Cloud Levels
  • Clear skies
Temperature
C / 46°F
Dewpoint
-7°C / 19°F
Humidity
34%
Altimeter
30.28" Hg
Pressure
1025.42 hPa